Time;durP1;ratioP1;P1;durP2;ratioP2;P2;SDS_P1;SDS_P2;PMS_P1;PMS_P2;Temp;Humidity;BMP_temperature;BMP_pressure;BME280_temperature;BME280_humidity;BME280_pressure;Samples;Min_cycle;Max_cycle;Signal;HPM_P1;HPM_P2
2023/04/30 00:01:12;;;;;;;6.95;5.22;;;18.00;78.60;;;;;;10824895;33;20043;-74
2023/04/30 00:07:14;;;;;;;11.45;6.75;;;17.90;78.60;;;;;;10825210;33;20035;-74
2023/04/30 00:13:17;;;;;;;8.60;6.35;;;17.90;78.30;;;;;;10800003;32;20055;-74
2023/04/30 00:19:19;;;;;;;13.32;9.93;;;17.90;78.10;;;;;;10824859;33;20008;-74
2023/04/30 00:25:23;;;;;;;10.00;7.10;;;17.90;78.00;;;;;;10824875;33;20015;-75
2023/04/30 00:31:26;;;;;;;7.60;5.22;;;17.90;78.10;;;;;;10823615;33;20443;-74
2023/04/30 00:37:28;;;;;;;10.55;7.72;;;17.80;78.10;;;;;;10823978;33;20436;-74
2023/04/30 00:43:30;;;;;;;11.40;6.85;;;17.80;78.40;;;;;;10823904;33;20017;-74
2023/04/30 00:49:35;;;;;;;8.77;6.55;;;17.80;78.90;;;;;;10823180;32;20020;-74
2023/04/30 00:55:42;;;;;;;9.48;4.60;;;17.70;79.20;;;;;;10811079;33;20044;-75
2023/04/30 01:02:19;;;;;;;10.30;7.45;;;17.70;78.90;;;;;;10818959;33;20024;-75
2023/04/30 01:08:21;;;;;;;10.27;8.15;;;17.60;78.80;;;;;;10826804;32;20039;-75
2023/04/30 01:14:39;;;;;;;6.30;4.30;;;17.60;78.70;;;;;;10830214;33;20047;-75
2023/04/30 01:20:49;;;;;;;7.97;6.47;;;17.50;78.90;;;;;;10829340;33;20038;-75
2023/04/30 01:27:30;;;;;;;12.85;9.73;;;17.60;79.10;;;;;;10816670;33;20041;-75
2023/04/30 01:33:32;;;;;;;11.12;8.25;;;17.60;79.00;;;;;;10829582;33;20378;-75
2023/04/30 01:39:55;;;;;;;5.70;4.93;;;17.60;79.10;;;;;;10829387;33;20027;-75
2023/04/30 01:46:01;;;;;;;5.75;4.97;;;17.60;79.00;;;;;;10811446;33;20027;-76
2023/04/30 01:52:18;;;;;;;7.60;4.93;;;17.50;79.00;;;;;;10827855;33;20019;-76
2023/04/30 01:58:22;;;;;;;10.95;6.12;;;17.50;79.00;;;;;;10827686;33;20047;-75
2023/04/30 02:04:25;;;;;;;12.05;8.18;;;17.50;78.90;;;;;;10824643;33;20020;-75
2023/04/30 02:10:29;;;;;;;8.48;6.82;;;17.40;79.30;;;;;;10827278;33;20082;-75
2023/04/30 02:16:31;;;;;;;10.77;8.40;;;17.40;79.40;;;;;;10814840;32;20028;-75
2023/04/30 02:22:34;;;;;;;9.98;8.15;;;17.30;79.70;;;;;;10827670;33;20020;-75
2023/04/30 02:28:36;;;;;;;10.65;6.60;;;17.20;80.40;;;;;;10828026;33;20048;-75
2023/04/30 02:34:39;;;;;;;10.88;8.45;;;17.20;80.50;;;;;;10827046;33;20020;-75
2023/04/30 02:40:41;;;;;;;8.10;5.53;;;17.30;80.40;;;;;;10827611;33;20381;-76
2023/04/30 02:46:44;;;;;;;7.32;4.57;;;17.20;80.70;;;;;;10815086;33;20025;-75
2023/04/30 02:52:46;;;;;;;10.30;7.12;;;17.20;80.40;;;;;;10826528;33;20016;-75
2023/04/30 02:58:48;;;;;;;8.35;5.50;;;17.20;80.40;;;;;;10825073;33;20350;-75
2023/04/30 03:04:50;;;;;;;13.65;9.52;;;17.20;80.40;;;;;;10813270;33;20359;-75
2023/04/30 03:10:52;;;;;;;13.13;8.63;;;17.30;80.30;;;;;;10826220;33;20024;-76
2023/04/30 03:16:54;;;;;;;10.95;8.35;;;17.30;80.30;;;;;;10826014;33;20051;-75
2023/04/30 03:22:56;;;;;;;9.55;5.75;;;17.30;80.30;;;;;;10826402;33;20408;-75
2023/04/30 03:29:00;;;;;;;10.98;7.50;;;17.30;80.20;;;;;;10825473;33;20028;-75
2023/04/30 03:35:03;;;;;;;7.25;5.97;;;17.30;80.20;;;;;;10826046;33;20051;-75
2023/04/30 03:41:05;;;;;;;8.20;5.55;;;17.20;80.50;;;;;;10826071;33;20021;-75
2023/04/30 03:47:07;;;;;;;10.13;7.75;;;17.20;80.30;;;;;;10825795;33;20055;-75
2023/04/30 03:53:09;;;;;;;10.52;8.27;;;17.20;80.30;;;;;;10824721;32;20023;-75
2023/04/30 03:59:12;;;;;;;9.77;8.00;;;17.20;80.20;;;;;;10822788;33;20037;-75
2023/04/30 04:05:14;;;;;;;10.40;9.05;;;17.20;80.00;;;;;;10810968;33;20416;-75
2023/04/30 04:11:17;;;;;;;10.70;7.90;;;17.20;79.90;;;;;;10820067;33;20067;-75
2023/04/30 04:17:34;;;;;;;11.52;9.20;;;17.20;80.00;;;;;;10824423;33;20027;-75
2023/04/30 04:23:37;;;;;;;7.75;4.60;;;17.20;80.40;;;;;;10810599;33;20032;-75
2023/04/30 04:29:39;;;;;;;6.15;4.12;;;17.20;80.50;;;;;;10807877;33;20046;-74
2023/04/30 04:35:44;;;;;;;6.95;4.47;;;17.10;80.70;;;;;;10824645;33;20020;-74
2023/04/30 04:41:48;;;;;;;9.77;5.50;;;17.00;80.60;;;;;;10810363;33;20051;-75
2023/04/30 04:47:51;;;;;;;11.07;6.53;;;17.00;80.90;;;;;;10829798;33;20028;-75
2023/04/30 04:53:53;;;;;;;16.45;8.32;;;17.10;80.80;;;;;;10829764;33;20020;-75
2023/04/30 04:59:55;;;;;;;11.57;7.45;;;17.10;80.90;;;;;;10829353;33;20058;-74
2023/04/30 05:05:58;;;;;;;7.55;5.75;;;17.10;81.10;;;;;;10830377;33;20020;-74
2023/04/30 05:12:01;;;;;;;15.43;7.45;;;17.10;81.30;;;;;;10830285;33;20016;-74
2023/04/30 05:18:04;;;;;;;10.52;6.90;;;17.20;81.50;;;;;;10828879;33;20020;-74
2023/04/30 05:24:07;;;;;;;8.05;6.05;;;17.10;81.40;;;;;;10826085;33;20020;-74
2023/04/30 05:30:10;;;;;;;9.55;7.28;;;17.20;81.40;;;;;;10829603;33;20028;-74
2023/04/30 05:36:13;;;;;;;9.45;7.22;;;17.20;81.40;;;;;;10829398;33;20062;-72
2023/04/30 05:42:15;;;;;;;8.20;5.40;;;17.20;81.30;;;;;;10829922;33;20016;-74
2023/04/30 05:48:17;;;;;;;8.57;6.22;;;17.30;81.30;;;;;;10829250;33;20406;-74
2023/04/30 05:54:20;;;;;;;6.68;4.80;;;17.20;81.40;;;;;;10827281;32;20050;-74
2023/04/30 06:00:22;;;;;;;11.35;7.18;;;17.30;81.30;;;;;;10815871;33;20047;-74
2023/04/30 06:06:24;;;;;;;10.18;7.37;;;17.30;81.30;;;;;;10878577;32;20031;-74
2023/04/30 06:12:26;;;;;;;11.30;5.90;;;17.30;81.40;;;;;;10825777;33;20055;-75
2023/04/30 06:18:29;;;;;;;9.15;5.70;;;17.30;81.30;;;;;;10827771;33;20456;-74
2023/04/30 06:24:33;;;;;;;10.02;6.62;;;17.30;81.20;;;;;;10813559;32;20048;-74
2023/04/30 06:30:36;;;;;;;9.60;6.12;;;17.30;81.20;;;;;;10826250;33;20025;-75
2023/04/30 06:36:38;;;;;;;9.90;7.25;;;17.30;81.40;;;;;;10827159;33;20064;-76
2023/04/30 06:42:40;;;;;;;8.68;6.32;;;17.20;81.70;;;;;;10827710;33;20330;-76
2023/04/30 06:48:42;;;;;;;8.15;5.80;;;17.20;81.80;;;;;;10823803;33;20020;-76
2023/04/30 06:54:44;;;;;;;7.97;5.55;;;17.30;81.50;;;;;;10826047;32;20020;-77
2023/04/30 07:00:58;;;;;;;6.40;3.83;;;17.30;81.30;;;;;;10827133;33;20394;-77
2023/04/30 07:07:01;;;;;;;5.53;3.40;;;17.30;81.00;;;;;;10826353;32;20019;-78
2023/04/30 07:13:16;;;;;;;7.72;4.57;;;17.20;80.80;;;;;;10809191;33;20101;-76
2023/04/30 07:19:18;;;;;;;11.90;6.57;;;17.20;80.80;;;;;;10824369;33;20056;-76
2023/04/30 07:25:23;;;;;;;9.95;5.47;;;17.20;80.80;;;;;;10825224;33;20032;-76
2023/04/30 07:31:26;;;;;;;6.20;4.03;;;17.20;80.70;;;;;;10823527;33;20031;-76
2023/04/30 07:37:28;;;;;;;9.60;7.53;;;17.20;80.50;;;;;;10822988;33;20090;-76
2023/04/30 07:43:30;;;;;;;9.70;6.93;;;17.20;80.40;;;;;;10825942;33;20016;-77
2023/04/30 07:49:32;;;;;;;6.30;4.12;;;17.20;80.50;;;;;;10812983;27;20032;-76
2023/04/30 07:55:36;;;;;;;6.87;5.40;;;17.20;80.50;;;;;;10811179;33;20047;-77
2023/04/30 08:01:38;;;;;;;13.43;12.02;;;17.20;80.30;;;;;;10809193;33;20032;-77
2023/04/30 08:08:08;;;;;;;11.40;8.27;;;17.20;80.20;;;;;;10810567;33;20422;-77
2023/04/30 08:14:11;;;;;;;8.20;5.57;;;17.20;80.10;;;;;;10822429;33;20020;-76
2023/04/30 08:20:13;;;;;;;7.47;5.68;;;17.20;80.20;;;;;;10820945;33;20023;-77
2023/04/30 08:26:15;;;;;;;9.05;6.68;;;17.30;80.20;;;;;;10820793;33;20008;-77
2023/04/30 08:32:21;;;;;;;8.82;6.07;;;17.40;79.90;;;;;;10812197;33;20035;-77
2023/04/30 08:38:27;;;;;;;9.50;7.05;;;17.50;79.90;;;;;;10824570;33;20055;-77
2023/04/30 08:44:38;;;;;;;9.15;6.60;;;17.50;80.10;;;;;;10820556;33;20407;-77
2023/04/30 08:50:41;;;;;;;15.48;13.62;;;17.60;80.20;;;;;;10823747;32;20016;-76
2023/04/30 08:56:45;;;;;;;14.15;11.12;;;17.50;81.00;;;;;;10823601;33;20024;-76
2023/04/30 09:02:49;;;;;;;13.77;12.32;;;17.50;81.70;;;;;;10824585;33;20012;-77
2023/04/30 09:08:52;;;;;;;11.80;7.55;;;17.50;82.10;;;;;;10824685;33;20420;-76
2023/04/30 09:15:04;;;;;;;18.27;12.37;;;17.50;82.20;;;;;;10819985;33;20020;-76
2023/04/30 09:21:07;;;;;;;14.60;11.93;;;17.60;82.50;;;;;;10810707;33;20035;-77
2023/04/30 09:27:23;;;;;;;16.25;11.77;;;17.60;82.80;;;;;;10820055;32;20070;-76
2023/04/30 09:33:26;;;;;;;16.95;13.77;;;17.70;82.90;;;;;;10829888;33;20054;-77
2023/04/30 09:39:32;;;;;;;20.33;11.88;;;17.80;83.00;;;;;;10827393;33;20081;-76
2023/04/30 09:45:46;;;;;;;12.52;10.75;;;17.90;83.10;;;;;;10828744;33;20024;-76
2023/04/30 09:52:00;;;;;;;12.57;10.95;;;17.90;82.90;;;;;;10828609;32;20460;-75
2023/04/30 09:58:09;;;;;;;10.63;9.57;;;18.00;82.80;;;;;;10810416;33;20036;-73
2023/04/30 10:04:18;;;;;;;9.65;6.78;;;18.10;83.00;;;;;;10829260;33;20020;-73
2023/04/30 10:10:21;;;;;;;9.57;8.25;;;18.20;82.80;;;;;;10828556;33;20028;-73
2023/04/30 10:16:47;;;;;;;9.75;8.68;;;18.30;82.50;;;;;;10814517;33;20023;-72
2023/04/30 10:22:52;;;;;;;7.87;6.22;;;18.40;82.10;;;;;;10812648;33;20060;-74
2023/04/30 10:28:59;;;;;;;8.93;6.40;;;18.50;82.10;;;;;;10828061;33;20020;-72
2023/04/30 10:35:26;;;;;;;8.48;5.62;;;18.60;81.80;;;;;;10792556;33;20076;-72
2023/04/30 10:41:30;;;;;;;8.82;4.87;;;18.60;81.40;;;;;;10778145;33;20476;-73
2023/04/30 10:47:35;;;;;;;5.93;4.45;;;18.70;81.10;;;;;;10789694;32;20055;-72
2023/04/30 10:53:39;;;;;;;8.15;5.00;;;18.80;80.80;;;;;;10789639;33;20012;-72
2023/04/30 11:00:14;;;;;;;6.78;3.97;;;18.90;80.40;;;;;;10790279;33;20024;-73
2023/04/30 11:06:20;;;;;;;7.93;3.60;;;19.10;80.00;;;;;;10826835;32;20024;-72
2023/04/30 11:12:28;;;;;;;5.60;2.97;;;19.30;79.70;;;;;;10828189;32;20095;-73
2023/04/30 11:19:08;;;;;;;6.00;3.85;;;19.50;79.10;;;;;;10815749;32;20028;-72
2023/04/30 11:25:12;;;;;;;5.72;3.90;;;19.70;78.60;;;;;;10827483;32;20062;-71
2023/04/30 11:31:15;;;;;;;6.78;4.68;;;19.90;77.90;;;;;;10828347;32;20050;-72
2023/04/30 11:37:39;;;;;;;6.97;5.72;;;20.20;77.30;;;;;;10839423;32;20086;-73
2023/04/30 11:43:41;;;;;;;5.85;3.97;;;20.30;76.70;;;;;;10771380;32;20075;-72
2023/04/30 11:49:44;;;;;;;6.43;3.58;;;20.40;76.40;;;;;;10783203;33;20496;-72
2023/04/30 11:55:46;;;;;;;6.60;4.50;;;20.50;76.10;;;;;;10784791;33;20043;-71
2023/04/30 12:01:48;;;;;;;7.20;3.37;;;20.70;75.70;;;;;;10852038;32;20052;-71
2023/04/30 12:08:11;;;;;;;4.90;2.60;;;20.80;74.80;;;;;;10862082;32;20042;-72
2023/04/30 12:14:14;;;;;;;3.30;1.92;;;20.80;73.70;;;;;;10861406;32;20046;-73
2023/04/30 12:20:28;;;;;;;7.28;2.92;;;20.80;72.80;;;;;;10822617;32;20041;-73
2023/04/30 12:26:38;;;;;;;2.47;2.10;;;20.80;71.50;;;;;;10788053;33;20039;-72
2023/04/30 12:32:47;;;;;;;1.92;1.45;;;20.80;71.30;;;;;;10787610;33;20379;-73
2023/04/30 12:39:30;;;;;;;2.30;1.80;;;20.80;71.00;;;;;;10770077;33;20024;-72
2023/04/30 12:45:54;;;;;;;3.15;2.03;;;20.80;70.50;;;;;;10782818;33;20016;-71
2023/04/30 12:52:06;;;;;;;2.05;1.50;;;20.90;69.90;;;;;;10786487;33;20347;-73
2023/04/30 12:58:12;;;;;;;1.98;1.67;;;20.80;68.80;;;;;;10784040;33;20059;-72
2023/04/30 13:04:16;;;;;;;3.03;1.70;;;21.10;68.50;;;;;;10760490;33;20050;-73
2023/04/30 13:10:18;;;;;;;1.90;1.55;;;21.30;67.80;;;;;;10790292;33;20384;-73
2023/04/30 13:16:20;;;;;;;5.65;1.80;;;21.30;67.70;;;;;;10807243;33;20020;-76
2023/04/30 13:22:28;;;;;;;2.20;1.33;;;21.30;68.00;;;;;;10815754;33;20020;-75
2023/04/30 13:28:33;;;;;;;1.80;1.50;;;21.30;67.50;;;;;;10826100;33;20042;-75
2023/04/30 13:34:36;;;;;;;5.82;2.05;;;21.30;67.70;;;;;;10825784;33;20031;-76
2023/04/30 13:40:38;;;;;;;2.05;1.37;;;21.40;67.50;;;;;;10815336;33;20101;-75
2023/04/30 13:46:41;;;;;;;2.00;1.52;;;21.40;67.20;;;;;;10828240;33;20024;-75
2023/04/30 13:52:46;;;;;;;4.43;1.95;;;21.50;66.90;;;;;;10812144;32;20024;-76
2023/04/30 13:58:50;;;;;;;5.62;2.70;;;21.60;66.10;;;;;;10813968;33;20070;-76
2023/04/30 14:04:55;;;;;;;3.67;2.40;;;21.80;65.40;;;;;;10827572;33;20020;-76
2023/04/30 14:11:07;;;;;;;2.78;1.80;;;21.90;65.20;;;;;;10826546;33;20092;-75
2023/04/30 14:17:13;;;;;;;1.55;1.30;;;22.00;65.00;;;;;;10791404;33;20051;-75
2023/04/30 14:23:17;;;;;;;28.73;23.00;;;22.10;64.90;;;;;;10790284;33;20017;-75
2023/04/30 14:29:19;;;;;;;13.77;7.55;;;22.20;64.40;;;;;;10790824;33;20052;-75
2023/04/30 14:35:22;;;;;;;10.02;5.93;;;22.20;64.40;;;;;;10791991;33;20028;-75
2023/04/30 14:41:24;;;;;;;34.28;25.75;;;22.10;64.70;;;;;;10825307;33;20019;-75
2023/04/30 14:47:27;;;;;;;9.80;7.68;;;22.10;64.20;;;;;;10826373;33;20043;-75
2023/04/30 14:53:29;;;;;;;8.00;5.60;;;22.00;64.40;;;;;;10813159;33;20338;-75
2023/04/30 14:59:33;;;;;;;7.15;4.18;;;22.00;64.40;;;;;;10826034;33;20020;-75
2023/04/30 15:05:36;;;;;;;6.18;3.62;;;21.90;64.40;;;;;;10825707;33;20020;-75
2023/04/30 15:11:39;;;;;;;2.92;2.42;;;22.00;64.40;;;;;;10808464;33;20385;-75
2023/04/30 15:17:41;;;;;;;3.55;2.30;;;22.20;64.00;;;;;;10822225;33;20413;-77
2023/04/30 15:23:50;;;;;;;2.55;1.65;;;22.30;63.50;;;;;;10825515;32;20043;-76
2023/04/30 15:29:53;;;;;;;3.28;2.33;;;22.30;63.30;;;;;;10826518;33;20016;-75
2023/04/30 15:35:56;;;;;;;3.60;1.83;;;22.20;63.80;;;;;;10826001;33;20051;-75
2023/04/30 15:41:59;;;;;;;2.15;1.40;;;22.10;63.80;;;;;;10824944;33;20039;-74
2023/04/30 15:48:02;;;;;;;4.47;1.90;;;22.10;63.90;;;;;;10825793;33;20314;-76
2023/04/30 15:54:06;;;;;;;3.47;1.90;;;22.10;64.00;;;;;;10735090;27;2979085;-76
2023/04/30 16:00:13;;;;;;;1.95;1.50;;;21.80;64.30;;;;;;10801000;33;20055;-75
2023/04/30 16:06:18;;;;;;;6.40;3.45;;;21.70;64.50;;;;;;10775134;33;20319;-75
2023/04/30 16:12:25;;;;;;;5.65;2.08;;;21.70;64.90;;;;;;10775953;32;20067;-75
2023/04/30 16:18:28;;;;;;;6.85;3.17;;;21.60;65.10;;;;;;10773374;33;20050;-75
2023/04/30 16:24:32;;;;;;;4.78;2.47;;;21.50;65.50;;;;;;10787698;33;20033;-75
2023/04/30 16:30:36;;;;;;;4.03;1.83;;;21.50;65.80;;;;;;10797638;33;20402;-75
2023/04/30 16:36:46;;;;;;;4.87;1.92;;;21.40;66.30;;;;;;10798178;33;20080;-74
2023/04/30 16:42:48;;;;;;;1.30;1.20;;;21.30;66.80;;;;;;10815430;33;20027;-75
2023/04/30 16:49:17;;;;;;;3.90;1.83;;;21.30;67.60;;;;;;10827320;32;20031;-75
2023/04/30 16:55:19;;;;;;;2.60;1.73;;;21.20;68.10;;;;;;10830866;33;20042;-75
2023/04/30 17:01:24;;;;;;;1.65;1.25;;;21.10;68.40;;;;;;10829204;33;20015;-75
2023/04/30 17:07:29;;;;;;;2.10;1.03;;;21.00;68.60;;;;;;10817107;33;20055;-74
2023/04/30 17:14:02;;;;;;;1.70;1.20;;;20.90;68.80;;;;;;10816204;33;20036;-74
2023/04/30 17:20:05;;;;;;;3.40;2.00;;;20.90;68.90;;;;;;10816893;33;20047;-75
2023/04/30 17:26:08;;;;;;;1.98;1.58;;;20.80;68.90;;;;;;10829472;33;20025;-75
2023/04/30 17:32:10;;;;;;;2.45;1.48;;;20.80;69.00;;;;;;10802944;33;20050;-75
2023/04/30 17:38:12;;;;;;;1.92;1.60;;;20.80;69.00;;;;;;10818341;32;20033;-75
2023/04/30 17:44:15;;;;;;;0.95;0.82;;;20.80;69.20;;;;;;10789101;32;20032;-74
2023/04/30 17:50:17;;;;;;;1.30;0.98;;;20.70;69.30;;;;;;10790497;33;20029;-75
2023/04/30 17:56:19;;;;;;;1.55;1.23;;;20.60;69.40;;;;;;10812125;33;20078;-75
2023/04/30 18:02:21;;;;;;;4.53;2.00;;;20.60;69.50;;;;;;10798085;33;20388;-75
2023/04/30 18:08:23;;;;;;;3.08;1.85;;;20.40;69.80;;;;;;10816412;33;20058;-75
2023/04/30 18:14:26;;;;;;;2.17;1.67;;;20.40;70.10;;;;;;10794120;32;20449;-75
2023/04/30 18:20:28;;;;;;;4.05;1.90;;;20.30;70.50;;;;;;10779062;33;20020;-75
2023/04/30 18:26:30;;;;;;;2.40;1.30;;;20.30;70.80;;;;;;10790432;33;20079;-75
2023/04/30 18:32:32;;;;;;;3.92;2.05;;;20.20;71.40;;;;;;10771196;33;20040;-75
2023/04/30 18:38:34;;;;;;;3.72;1.90;;;20.00;72.40;;;;;;10789802;33;20047;-75
2023/04/30 18:44:37;;;;;;;2.28;1.60;;;19.90;73.10;;;;;;10777742;33;20028;-74
2023/04/30 18:50:39;;;;;;;2.25;1.80;;;19.90;73.10;;;;;;10789987;33;20433;-74
2023/04/30 18:56:41;;;;;;;3.62;2.40;;;19.90;73.40;;;;;;10782505;33;20050;-74
2023/04/30 19:02:43;;;;;;;3.28;1.90;;;19.90;73.30;;;;;;10774023;32;20409;-75
2023/04/30 19:08:46;;;;;;;3.10;1.90;;;19.80;73.20;;;;;;10778279;33;20059;-74
2023/04/30 19:14:49;;;;;;;2.85;1.60;;;19.80;73.40;;;;;;10789720;33;20067;-74
2023/04/30 19:20:55;;;;;;;3.17;2.40;;;19.80;73.50;;;;;;10790520;33;20024;-74
2023/04/30 19:27:02;;;;;;;4.93;2.78;;;19.80;73.80;;;;;;10775681;32;20036;-74
2023/04/30 19:33:08;;;;;;;3.20;2.33;;;19.70;74.50;;;;;;10776267;33;20055;-74
2023/04/30 19:39:14;;;;;;;3.85;1.90;;;19.60;75.10;;;;;;10786255;33;20029;-75
2023/04/30 19:45:18;;;;;;;4.18;2.42;;;19.60;75.40;;;;;;10788349;33;20024;-75
2023/04/30 19:51:22;;;;;;;3.20;2.42;;;19.50;75.30;;;;;;10786654;33;20051;-75
2023/04/30 19:57:26;;;;;;;3.35;2.05;;;19.50;75.20;;;;;;10789529;33;20042;-74
2023/04/30 20:03:28;;;;;;;4.07;2.90;;;19.40;75.20;;;;;;10851202;32;20032;-75
2023/04/30 20:09:31;;;;;;;4.05;2.42;;;19.40;75.30;;;;;;10772590;33;20020;-75
2023/04/30 20:15:35;;;;;;;4.65;3.20;;;19.30;75.60;;;;;;10788283;33;20025;-74
2023/04/30 20:21:46;;;;;;;3.47;2.35;;;19.30;76.30;;;;;;10788861;33;20050;-74
2023/04/30 20:27:48;;;;;;;4.03;2.50;;;19.30;76.60;;;;;;10792504;32;20432;-74
2023/04/30 20:33:54;;;;;;;3.20;2.55;;;19.30;76.80;;;;;;10791453;33;20346;-74
2023/04/30 20:40:06;;;;;;;5.10;3.45;;;19.20;76.90;;;;;;10781894;32;20036;-75
2023/04/30 20:46:12;;;;;;;4.00;3.08;;;19.20;76.80;;;;;;10772344;33;20052;-76
2023/04/30 20:52:29;;;;;;;3.85;2.85;;;19.20;76.60;;;;;;10788057;33;20051;-75
2023/04/30 20:58:31;;;;;;;5.45;2.97;;;19.10;76.60;;;;;;10775223;33;20036;-75
2023/04/30 21:04:33;;;;;;;3.72;2.40;;;19.00;76.60;;;;;;10788558;33;20408;-75
2023/04/30 21:10:36;;;;;;;5.82;3.50;;;18.90;76.60;;;;;;10774235;33;20051;-75
2023/04/30 21:16:39;;;;;;;4.47;2.87;;;18.90;76.70;;;;;;10787346;33;20342;-76
2023/04/30 21:22:41;;;;;;;5.70;3.92;;;18.90;76.80;;;;;;10788368;33;20020;-75
2023/04/30 21:28:45;;;;;;;6.07;4.28;;;18.90;77.30;;;;;;10792505;32;20063;-75
2023/04/30 21:35:11;;;;;;;7.18;5.37;;;18.80;77.90;;;;;;10785735;33;20032;-76
2023/04/30 21:41:35;;;;;;;5.70;3.95;;;18.70;78.60;;;;;;10787429;33;20040;-75
2023/04/30 21:47:39;;;;;;;8.60;6.68;;;18.60;79.00;;;;;;10791401;33;20020;-76
2023/04/30 21:53:45;;;;;;;6.47;4.72;;;18.40;79.10;;;;;;10791631;33;20048;-75
2023/04/30 21:59:47;;;;;;;6.10;3.97;;;18.30;79.40;;;;;;10777872;33;20023;-75
2023/04/30 22:05:49;;;;;;;6.37;3.80;;;18.40;79.20;;;;;;10791726;33;20016;-76
2023/04/30 22:11:52;;;;;;;6.18;4.07;;;18.50;79.00;;;;;;10791426;33;20025;-76
2023/04/30 22:18:07;;;;;;;5.57;3.65;;;18.50;78.70;;;;;;10789353;33;20059;-76
2023/04/30 22:24:09;;;;;;;5.37;3.97;;;18.50;78.70;;;;;;10790573;33;20502;-75
2023/04/30 22:30:11;;;;;;;8.65;6.30;;;18.50;78.90;;;;;;10791593;33;20315;-75
2023/04/30 22:36:29;;;;;;;6.18;4.40;;;18.40;79.40;;;;;;10789650;33;20059;-76
2023/04/30 22:42:31;;;;;;;8.40;5.05;;;18.30;79.30;;;;;;10789563;33;20025;-75
2023/04/30 22:48:46;;;;;;;37.58;4.57;;;18.40;79.30;;;;;;10791008;33;20020;-75
2023/04/30 22:54:49;;;;;;;5.25;3.20;;;18.30;79.40;;;;;;10785818;33;20437;-75
2023/04/30 23:00:51;;;;;;;6.72;4.80;;;18.40;79.50;;;;;;10790091;33;20012;-75
2023/04/30 23:06:53;;;;;;;5.22;3.40;;;18.30;79.60;;;;;;10790617;33;20025;-74
2023/04/30 23:13:17;;;;;;;6.00;3.53;;;18.30;79.00;;;;;;10788132;33;20024;-74
2023/04/30 23:19:19;;;;;;;4.00;2.90;;;18.30;79.30;;;;;;10788265;33;20406;-75
2023/04/30 23:25:21;;;;;;;4.65;3.40;;;18.20;79.60;;;;;;10788165;33;20028;-75
2023/04/30 23:31:24;;;;;;;5.35;2.62;;;18.20;79.30;;;;;;10786146;33;20434;-76
2023/04/30 23:37:26;;;;;;;6.90;3.62;;;18.20;79.50;;;;;;10788409;33;20402;-75
2023/04/30 23:43:30;;;;;;;6.60;2.55;;;18.10;79.00;;;;;;10788088;32;20059;-74
2023/04/30 23:49:32;;;;;;;4.85;3.10;;;18.00;78.90;;;;;;10783340;27;20364;-76
2023/04/30 23:55:42;;;;;;;4.50;3.30;;;18.10;78.60;;;;;;10824773;33;20054;-74
